sensor_id;sensor_type;location;lat;lon;timestamp;temperature;humidity
1778;DHT22;886;50.082;8.222;2022-11-14T00:00:04;5.90;99.90
1778;DHT22;886;50.082;8.222;2022-11-14T00:02:32;6.00;99.90
1778;DHT22;886;50.082;8.222;2022-11-14T00:05:08;6.00;99.90
1778;DHT22;886;50.082;8.222;2022-11-14T00:07:40;6.00;99.90
1778;DHT22;886;50.082;8.222;2022-11-14T00:10:16;5.90;99.90
1778;DHT22;886;50.082;8.222;2022-11-14T00:12:43;6.00;99.90
1778;DHT22;886;50.082;8.222;2022-11-14T00:15:11;6.00;99.90
1778;DHT22;886;50.082;8.222;2022-11-14T00:17:42;6.00;99.90
1778;DHT22;886;50.082;8.222;2022-11-14T00:20:11;5.80;99.90
1778;DHT22;886;50.082;8.222;2022-11-14T00:22:39;5.80;99.90
1778;DHT22;886;50.082;8.222;2022-11-14T00:25:06;5.70;99.90
1778;DHT22;886;50.082;8.222;2022-11-14T00:27:34;5.80;99.90
1778;DHT22;886;50.082;8.222;2022-11-14T00:30:01;5.70;99.90
1778;DHT22;886;50.082;8.222;2022-11-14T00:32:35;5.70;99.90
1778;DHT22;886;50.082;8.222;2022-11-14T00:35:02;5.70;99.90
1778;DHT22;886;50.082;8.222;2022-11-14T00:37:34;5.70;99.90
1778;DHT22;886;50.082;8.222;2022-11-14T00:40:07;5.60;99.90
1778;DHT22;886;50.082;8.222;2022-11-14T00:42:34;5.70;99.90
1778;DHT22;886;50.082;8.222;2022-11-14T00:45:05;5.80;99.90
1778;DHT22;886;50.082;8.222;2022-11-14T00:47:35;5.80;99.90
1778;DHT22;886;50.082;8.222;2022-11-14T00:50:06;5.70;99.90
1778;DHT22;886;50.082;8.222;2022-11-14T00:52:42;5.60;99.90
1778;DHT22;886;50.082;8.222;2022-11-14T00:55:09;5.60;99.90
1778;DHT22;886;50.082;8.222;2022-11-14T00:57:36;5.60;99.90
1778;DHT22;886;50.082;8.222;2022-11-14T01:00:08;5.50;99.90
1778;DHT22;886;50.082;8.222;2022-11-14T01:02:37;5.50;99.90
1778;DHT22;886;50.082;8.222;2022-11-14T01:05:05;5.50;99.90
1778;DHT22;886;50.082;8.222;2022-11-14T01:07:35;5.50;99.90
1778;DHT22;886;50.082;8.222;2022-11-14T01:10:12;5.60;99.90
1778;DHT22;886;50.082;8.222;2022-11-14T01:12:39;5.60;99.90
1778;DHT22;886;50.082;8.222;2022-11-14T01:15:10;5.50;99.90
1778;DHT22;886;50.082;8.222;2022-11-14T01:17:52;5.50;99.90
1778;DHT22;886;50.082;8.222;2022-11-14T01:20:19;5.40;99.90
1778;DHT22;886;50.082;8.222;2022-11-14T01:22:46;5.40;99.90
1778;DHT22;886;50.082;8.222;2022-11-14T01:25:14;5.50;99.90
1778;DHT22;886;50.082;8.222;2022-11-14T01:27:46;5.50;99.90
1778;DHT22;886;50.082;8.222;2022-11-14T01:30:13;5.60;99.90
1778;DHT22;886;50.082;8.222;2022-11-14T01:32:40;5.50;99.90
1778;DHT22;886;50.082;8.222;2022-11-14T01:35:07;5.70;99.90
1778;DHT22;886;50.082;8.222;2022-11-14T01:37:38;5.60;99.90
1778;DHT22;886;50.082;8.222;2022-11-14T01:40:06;5.60;99.90
1778;DHT22;886;50.082;8.222;2022-11-14T01:42:38;5.70;99.90
1778;DHT22;886;50.082;8.222;2022-11-14T01:48:28;5.80;99.90
1778;DHT22;886;50.082;8.222;2022-11-14T01:51:23;5.80;99.90
1778;DHT22;886;50.082;8.222;2022-11-14T01:53:54;5.70;99.90
1778;DHT22;886;50.082;8.222;2022-11-14T01:56:27;5.80;99.90
1778;DHT22;886;50.082;8.222;2022-11-14T01:59:01;5.90;99.90
1778;DHT22;886;50.082;8.222;2022-11-14T02:01:30;5.90;99.90
1778;DHT22;886;50.082;8.222;2022-11-14T02:03:59;5.90;99.90
1778;DHT22;886;50.082;8.222;2022-11-14T02:06:32;5.90;99.90
1778;DHT22;886;50.082;8.222;2022-11-14T02:09:04;5.90;99.90
1778;DHT22;886;50.082;8.222;2022-11-14T02:11:37;6.00;99.90
1778;DHT22;886;50.082;8.222;2022-11-14T02:14:08;6.10;99.90
1778;DHT22;886;50.082;8.222;2022-11-14T02:16:38;6.20;99.90
1778;DHT22;886;50.082;8.222;2022-11-14T02:19:07;6.20;99.90
1778;DHT22;886;50.082;8.222;2022-11-14T02:21:35;6.20;99.90
1778;DHT22;886;50.082;8.222;2022-11-14T02:24:08;6.20;99.90
1778;DHT22;886;50.082;8.222;2022-11-14T02:26:36;6.20;99.90
1778;DHT22;886;50.082;8.222;2022-11-14T02:29:04;6.10;99.90
1778;DHT22;886;50.082;8.222;2022-11-14T02:31:33;6.00;99.90
1778;DHT22;886;50.082;8.222;2022-11-14T02:34:04;6.00;99.90
1778;DHT22;886;50.082;8.222;2022-11-14T02:36:35;5.90;99.90
1778;DHT22;886;50.082;8.222;2022-11-14T02:39:02;5.90;99.90
1778;DHT22;886;50.082;8.222;2022-11-14T02:41:29;5.90;99.90
1778;DHT22;886;50.082;8.222;2022-11-14T02:44:00;6.00;99.90
1778;DHT22;886;50.082;8.222;2022-11-14T02:46:33;6.10;99.90
1778;DHT22;886;50.082;8.222;2022-11-14T02:49:07;6.10;99.90
1778;DHT22;886;50.082;8.222;2022-11-14T02:51:35;6.00;99.90
1778;DHT22;886;50.082;8.222;2022-11-14T02:54:06;6.00;99.90
1778;DHT22;886;50.082;8.222;2022-11-14T02:56:36;6.10;99.90
1778;DHT22;886;50.082;8.222;2022-11-14T02:59:12;6.20;99.90
1778;DHT22;886;50.082;8.222;2022-11-14T03:01:39;6.10;99.90
1778;DHT22;886;50.082;8.222;2022-11-14T03:04:09;6.10;99.90
1778;DHT22;886;50.082;8.222;2022-11-14T03:06:41;6.10;99.90
1778;DHT22;886;50.082;8.222;2022-11-14T03:09:10;6.10;99.90
1778;DHT22;886;50.082;8.222;2022-11-14T03:11:40;6.10;99.90
1778;DHT22;886;50.082;8.222;2022-11-14T03:14:07;6.20;99.90
1778;DHT22;886;50.082;8.222;2022-11-14T03:16:34;6.20;99.90
1778;DHT22;886;50.082;8.222;2022-11-14T03:19:01;6.10;99.90
1778;DHT22;886;50.082;8.222;2022-11-14T03:21:31;6.10;99.90
1778;DHT22;886;50.082;8.222;2022-11-14T03:24:06;6.00;99.90
1778;DHT22;886;50.082;8.222;2022-11-14T03:26:33;6.00;99.90
1778;DHT22;886;50.082;8.222;2022-11-14T03:29:00;6.10;99.90
1778;DHT22;886;50.082;8.222;2022-11-14T03:31:27;6.10;99.90
1778;DHT22;886;50.082;8.222;2022-11-14T03:33:54;6.20;99.90
1778;DHT22;886;50.082;8.222;2022-11-14T03:36:27;6.20;99.90
1778;DHT22;886;50.082;8.222;2022-11-14T03:39:00;6.10;99.90
1778;DHT22;886;50.082;8.222;2022-11-14T03:41:28;6.10;99.90
1778;DHT22;886;50.082;8.222;2022-11-14T03:43:55;6.10;99.90
1778;DHT22;886;50.082;8.222;2022-11-14T03:46:29;6.20;99.90
1778;DHT22;886;50.082;8.222;2022-11-14T03:48:56;6.20;99.90
1778;DHT22;886;50.082;8.222;2022-11-14T03:51:23;6.10;99.90
1778;DHT22;886;50.082;8.222;2022-11-14T03:53:50;6.10;99.90
1778;DHT22;886;50.082;8.222;2022-11-14T03:56:17;6.10;99.90
1778;DHT22;886;50.082;8.222;2022-11-14T03:58:47;6.10;99.90
1778;DHT22;886;50.082;8.222;2022-11-14T04:01:14;6.00;99.90
1778;DHT22;886;50.082;8.222;2022-11-14T04:03:46;6.10;99.90
1778;DHT22;886;50.082;8.222;2022-11-14T04:06:25;6.10;99.90
1778;DHT22;886;50.082;8.222;2022-11-14T04:08:52;6.20;99.90
1778;DHT22;886;50.082;8.222;2022-11-14T04:11:25;6.20;99.90
1778;DHT22;886;50.082;8.222;2022-11-14T04:13:53;6.20;99.90
1778;DHT22;886;50.082;8.222;2022-11-14T04:16:20;6.20;99.90
1778;DHT22;886;50.082;8.222;2022-11-14T04:18:47;6.20;99.90
1778;DHT22;886;50.082;8.222;2022-11-14T04:21:14;6.20;99.90
1778;DHT22;886;50.082;8.222;2022-11-14T04:23:41;6.30;99.90
1778;DHT22;886;50.082;8.222;2022-11-14T04:26:16;6.40;99.90
1778;DHT22;886;50.082;8.222;2022-11-14T04:28:46;6.40;99.90
1778;DHT22;886;50.082;8.222;2022-11-14T04:31:14;6.50;99.90
1778;DHT22;886;50.082;8.222;2022-11-14T04:33:44;6.50;99.90
1778;DHT22;886;50.082;8.222;2022-11-14T04:36:17;6.40;99.90
1778;DHT22;886;50.082;8.222;2022-11-14T04:38:53;6.40;99.90
1778;DHT22;886;50.082;8.222;2022-11-14T04:41:20;6.30;99.90
1778;DHT22;886;50.082;8.222;2022-11-14T04:43:47;6.30;99.90
1778;DHT22;886;50.082;8.222;2022-11-14T04:46:21;6.40;99.90
1778;DHT22;886;50.082;8.222;2022-11-14T04:48:48;6.40;99.90
1778;DHT22;886;50.082;8.222;2022-11-14T04:51:17;6.40;99.90
1778;DHT22;886;50.082;8.222;2022-11-14T04:53:44;6.40;99.90
1778;DHT22;886;50.082;8.222;2022-11-14T04:56:11;6.40;99.90
1778;DHT22;886;50.082;8.222;2022-11-14T04:58:38;6.40;99.90
1778;DHT22;886;50.082;8.222;2022-11-14T05:01:08;6.30;99.90
1778;DHT22;886;50.082;8.222;2022-11-14T05:03:36;6.30;99.90
1778;DHT22;886;50.082;8.222;2022-11-14T05:06:06;6.30;99.90
1778;DHT22;886;50.082;8.222;2022-11-14T05:08:33;6.40;99.90
1778;DHT22;886;50.082;8.222;2022-11-14T05:11:00;6.40;99.90
1778;DHT22;886;50.082;8.222;2022-11-14T05:13:28;6.40;99.90
1778;DHT22;886;50.082;8.222;2022-11-14T05:15:57;6.40;99.90
1778;DHT22;886;50.082;8.222;2022-11-14T05:18:26;6.50;99.90
1778;DHT22;886;50.082;8.222;2022-11-14T05:20:58;6.40;99.90
1778;DHT22;886;50.082;8.222;2022-11-14T05:23:26;6.40;99.90
1778;DHT22;886;50.082;8.222;2022-11-14T05:26:03;6.50;99.90
1778;DHT22;886;50.082;8.222;2022-11-14T05:28:31;6.50;99.90
1778;DHT22;886;50.082;8.222;2022-11-14T05:31:02;6.60;99.90
1778;DHT22;886;50.082;8.222;2022-11-14T05:33:30;6.60;99.90
1778;DHT22;886;50.082;8.222;2022-11-14T05:36:02;6.70;99.90
1778;DHT22;886;50.082;8.222;2022-11-14T05:38:29;6.60;99.90
1778;DHT22;886;50.082;8.222;2022-11-14T05:40:57;6.70;99.90
1778;DHT22;886;50.082;8.222;2022-11-14T05:43:27;6.70;99.90
1778;DHT22;886;50.082;8.222;2022-11-14T05:45:58;6.60;99.90
1778;DHT22;886;50.082;8.222;2022-11-14T05:48:26;6.70;99.90
1778;DHT22;886;50.082;8.222;2022-11-14T05:50:54;6.70;99.90
1778;DHT22;886;50.082;8.222;2022-11-14T05:53:23;6.70;99.90
1778;DHT22;886;50.082;8.222;2022-11-14T05:55:50;6.70;99.90
1778;DHT22;886;50.082;8.222;2022-11-14T05:58:19;6.80;99.90
1778;DHT22;886;50.082;8.222;2022-11-14T06:00:48;6.80;99.90
1778;DHT22;886;50.082;8.222;2022-11-14T06:03:23;6.80;99.90
1778;DHT22;886;50.082;8.222;2022-11-14T06:05:50;6.80;99.90
1778;DHT22;886;50.082;8.222;2022-11-14T06:08:17;6.70;99.90
1778;DHT22;886;50.082;8.222;2022-11-14T06:10:45;6.70;99.90
1778;DHT22;886;50.082;8.222;2022-11-14T06:13:12;6.70;99.90
1778;DHT22;886;50.082;8.222;2022-11-14T06:15:39;6.80;99.90
1778;DHT22;886;50.082;8.222;2022-11-14T06:18:06;6.80;99.90
1778;DHT22;886;50.082;8.222;2022-11-14T06:20:33;6.90;99.90
1778;DHT22;886;50.082;8.222;2022-11-14T06:23:00;6.90;99.90
1778;DHT22;886;50.082;8.222;2022-11-14T06:25:27;6.80;99.90
1778;DHT22;886;50.082;8.222;2022-11-14T06:27:55;6.90;99.90
1778;DHT22;886;50.082;8.222;2022-11-14T06:30:32;6.90;99.90
1778;DHT22;886;50.082;8.222;2022-11-14T06:32:59;6.90;99.90
1778;DHT22;886;50.082;8.222;2022-11-14T06:35:26;7.00;99.90
1778;DHT22;886;50.082;8.222;2022-11-14T06:37:53;7.00;99.90
1778;DHT22;886;50.082;8.222;2022-11-14T06:40:24;7.00;99.90
1778;DHT22;886;50.082;8.222;2022-11-14T06:42:58;7.00;99.90
1778;DHT22;886;50.082;8.222;2022-11-14T06:45:25;6.90;99.90
1778;DHT22;886;50.082;8.222;2022-11-14T06:48:00;6.90;99.90
1778;DHT22;886;50.082;8.222;2022-11-14T06:50:39;6.90;99.90
1778;DHT22;886;50.082;8.222;2022-11-14T06:53:09;6.90;99.90
1778;DHT22;886;50.082;8.222;2022-11-14T06:55:36;7.00;99.90
1778;DHT22;886;50.082;8.222;2022-11-14T06:58:07;7.10;99.90
1778;DHT22;886;50.082;8.222;2022-11-14T07:00:37;7.10;99.90
1778;DHT22;886;50.082;8.222;2022-11-14T07:03:04;7.10;99.90
1778;DHT22;886;50.082;8.222;2022-11-14T07:05:34;7.10;99.90
1778;DHT22;886;50.082;8.222;2022-11-14T07:08:01;7.10;99.90
1778;DHT22;886;50.082;8.222;2022-11-14T07:10:28;7.10;99.90
1778;DHT22;886;50.082;8.222;2022-11-14T07:12:57;7.10;99.90
1778;DHT22;886;50.082;8.222;2022-11-14T07:15:28;7.20;99.90
1778;DHT22;886;50.082;8.222;2022-11-14T07:17:57;7.10;99.90
1778;DHT22;886;50.082;8.222;2022-11-14T07:20:27;7.20;99.90
1778;DHT22;886;50.082;8.222;2022-11-14T07:22:54;7.20;99.90
1778;DHT22;886;50.082;8.222;2022-11-14T07:25:24;7.20;99.90
1778;DHT22;886;50.082;8.222;2022-11-14T07:27:51;7.20;99.90
1778;DHT22;886;50.082;8.222;2022-11-14T07:30:29;7.20;99.90
1778;DHT22;886;50.082;8.222;2022-11-14T07:32:56;7.20;99.90
1778;DHT22;886;50.082;8.222;2022-11-14T07:35:27;7.20;99.90
1778;DHT22;886;50.082;8.222;2022-11-14T07:38:00;7.20;99.90
1778;DHT22;886;50.082;8.222;2022-11-14T07:40:27;7.20;99.90
1778;DHT22;886;50.082;8.222;2022-11-14T07:42:57;7.20;99.90
1778;DHT22;886;50.082;8.222;2022-11-14T07:45:24;7.20;99.90
1778;DHT22;886;50.082;8.222;2022-11-14T07:47:54;7.30;99.90
1778;DHT22;886;50.082;8.222;2022-11-14T07:50:24;7.30;99.90
1778;DHT22;886;50.082;8.222;2022-11-14T07:52:55;7.20;99.90
1778;DHT22;886;50.082;8.222;2022-11-14T07:55:23;7.20;99.90
1778;DHT22;886;50.082;8.222;2022-11-14T07:57:54;7.20;99.90
1778;DHT22;886;50.082;8.222;2022-11-14T08:00:30;7.20;99.90
1778;DHT22;886;50.082;8.222;2022-11-14T08:03:05;7.30;99.90
1778;DHT22;886;50.082;8.222;2022-11-14T08:05:32;7.30;99.90
1778;DHT22;886;50.082;8.222;2022-11-14T08:07:59;7.30;99.90
1778;DHT22;886;50.082;8.222;2022-11-14T08:10:26;7.40;99.90
1778;DHT22;886;50.082;8.222;2022-11-14T08:13:00;7.40;99.90
1778;DHT22;886;50.082;8.222;2022-11-14T08:15:52;7.40;99.90
1778;DHT22;886;50.082;8.222;2022-11-14T08:18:27;7.40;99.90
1778;DHT22;886;50.082;8.222;2022-11-14T08:20:57;7.40;99.90
1778;DHT22;886;50.082;8.222;2022-11-14T08:23:30;7.50;99.90
1778;DHT22;886;50.082;8.222;2022-11-14T08:26:01;7.40;99.90
1778;DHT22;886;50.082;8.222;2022-11-14T08:28:28;7.50;99.90
1778;DHT22;886;50.082;8.222;2022-11-14T08:30:58;7.50;99.90
1778;DHT22;886;50.082;8.222;2022-11-14T08:33:27;7.50;99.90
1778;DHT22;886;50.082;8.222;2022-11-14T08:35:54;7.60;99.90
1778;DHT22;886;50.082;8.222;2022-11-14T08:38:24;7.50;99.90
1778;DHT22;886;50.082;8.222;2022-11-14T08:40:57;7.40;99.90
1778;DHT22;886;50.082;8.222;2022-11-14T08:43:27;7.50;99.90
1778;DHT22;886;50.082;8.222;2022-11-14T08:46:01;7.50;99.90
1778;DHT22;886;50.082;8.222;2022-11-14T08:48:31;7.60;99.90
1778;DHT22;886;50.082;8.222;2022-11-14T08:51:06;7.50;99.90
1778;DHT22;886;50.082;8.222;2022-11-14T08:53:33;7.50;99.90
1778;DHT22;886;50.082;8.222;2022-11-14T08:56:00;7.50;99.90
1778;DHT22;886;50.082;8.222;2022-11-14T08:58:31;7.60;99.90
1778;DHT22;886;50.082;8.222;2022-11-14T09:01:00;7.60;99.90
1778;DHT22;886;50.082;8.222;2022-11-14T09:03:27;7.60;99.90
1778;DHT22;886;50.082;8.222;2022-11-14T09:06:01;7.60;99.90
1778;DHT22;886;50.082;8.222;2022-11-14T09:08:29;7.50;99.90
1778;DHT22;886;50.082;8.222;2022-11-14T09:10:59;7.50;99.90
1778;DHT22;886;50.082;8.222;2022-11-14T09:13:31;7.50;99.90
1778;DHT22;886;50.082;8.222;2022-11-14T09:15:59;7.50;99.90
1778;DHT22;886;50.082;8.222;2022-11-14T09:18:26;7.60;99.90
1778;DHT22;886;50.082;8.222;2022-11-14T09:21:00;7.50;99.90
1778;DHT22;886;50.082;8.222;2022-11-14T09:23:31;7.50;99.90
1778;DHT22;886;50.082;8.222;2022-11-14T09:26:02;7.50;99.90
1778;DHT22;886;50.082;8.222;2022-11-14T09:28:30;7.50;99.90
1778;DHT22;886;50.082;8.222;2022-11-14T09:31:04;7.60;99.90
1778;DHT22;886;50.082;8.222;2022-11-14T09:33:35;7.60;99.90
1778;DHT22;886;50.082;8.222;2022-11-14T09:36:10;7.60;99.90
1778;DHT22;886;50.082;8.222;2022-11-14T09:38:41;7.70;99.90
1778;DHT22;886;50.082;8.222;2022-11-14T09:41:21;7.70;99.90
1778;DHT22;886;50.082;8.222;2022-11-14T09:44:27;7.70;99.90
1778;DHT22;886;50.082;8.222;2022-11-14T09:47:09;7.80;99.90
1778;DHT22;886;50.082;8.222;2022-11-14T09:49:48;7.90;99.90
1778;DHT22;886;50.082;8.222;2022-11-14T09:52:26;7.90;99.90
1778;DHT22;886;50.082;8.222;2022-11-14T09:54:58;7.90;99.90
1778;DHT22;886;50.082;8.222;2022-11-14T09:57:28;7.90;99.90
1778;DHT22;886;50.082;8.222;2022-11-14T09:59:55;7.90;99.90
1778;DHT22;886;50.082;8.222;2022-11-14T10:02:32;8.00;99.90
1778;DHT22;886;50.082;8.222;2022-11-14T10:05:34;7.90;99.90
1778;DHT22;886;50.082;8.222;2022-11-14T10:08:22;8.00;99.90
1778;DHT22;886;50.082;8.222;2022-11-14T10:11:03;8.10;99.90
1778;DHT22;886;50.082;8.222;2022-11-14T10:14:16;8.10;99.90
1778;DHT22;886;50.082;8.222;2022-11-14T10:17:22;8.00;99.90
1778;DHT22;886;50.082;8.222;2022-11-14T10:20:03;8.00;99.90
1778;DHT22;886;50.082;8.222;2022-11-14T10:22:47;8.00;99.90
1778;DHT22;886;50.082;8.222;2022-11-14T10:25:32;8.10;99.90
1778;DHT22;886;50.082;8.222;2022-11-14T10:28:31;8.10;99.90
1778;DHT22;886;50.082;8.222;2022-11-14T10:31:20;8.20;99.90
1778;DHT22;886;50.082;8.222;2022-11-14T10:34:03;8.30;99.90
1778;DHT22;886;50.082;8.222;2022-11-14T10:36:46;8.30;99.90
1778;DHT22;886;50.082;8.222;2022-11-14T10:39:20;8.30;99.90
1778;DHT22;886;50.082;8.222;2022-11-14T10:41:53;8.40;99.90
1778;DHT22;886;50.082;8.222;2022-11-14T10:44:33;8.40;99.90
1778;DHT22;886;50.082;8.222;2022-11-14T10:47:05;8.40;99.90
1778;DHT22;886;50.082;8.222;2022-11-14T10:49:36;8.40;99.90
1778;DHT22;886;50.082;8.222;2022-11-14T10:52:13;8.40;99.90
1778;DHT22;886;50.082;8.222;2022-11-14T10:54:45;8.50;99.90
1778;DHT22;886;50.082;8.222;2022-11-14T10:57:20;8.70;99.90
1778;DHT22;886;50.082;8.222;2022-11-14T10:59:50;8.80;99.90
1778;DHT22;886;50.082;8.222;2022-11-14T11:02:19;8.80;99.90
1778;DHT22;886;50.082;8.222;2022-11-14T11:04:46;8.70;99.90
1778;DHT22;886;50.082;8.222;2022-11-14T11:07:25;8.80;99.90
1778;DHT22;886;50.082;8.222;2022-11-14T11:10:21;8.80;99.90
1778;DHT22;886;50.082;8.222;2022-11-14T11:13:29;8.80;99.90
1778;DHT22;886;50.082;8.222;2022-11-14T11:16:01;8.90;99.90
1778;DHT22;886;50.082;8.222;2022-11-14T11:18:31;8.90;99.90
1778;DHT22;886;50.082;8.222;2022-11-14T11:21:14;8.90;99.90
1778;DHT22;886;50.082;8.222;2022-11-14T11:23:48;9.00;99.90
1778;DHT22;886;50.082;8.222;2022-11-14T11:26:19;9.00;99.90
1778;DHT22;886;50.082;8.222;2022-11-14T11:29:06;9.00;99.90
1778;DHT22;886;50.082;8.222;2022-11-14T11:31:52;9.10;99.90
1778;DHT22;886;50.082;8.222;2022-11-14T11:34:28;9.10;99.90
1778;DHT22;886;50.082;8.222;2022-11-14T11:37:06;9.20;99.90
1778;DHT22;886;50.082;8.222;2022-11-14T11:39:50;9.30;99.90
1778;DHT22;886;50.082;8.222;2022-11-14T11:42:22;9.30;99.90
1778;DHT22;886;50.082;8.222;2022-11-14T11:44:58;9.30;99.90
1778;DHT22;886;50.082;8.222;2022-11-14T11:47:28;9.40;99.90
1778;DHT22;886;50.082;8.222;2022-11-14T11:49:57;9.50;99.90
1778;DHT22;886;50.082;8.222;2022-11-14T11:52:29;9.60;99.90
1778;DHT22;886;50.082;8.222;2022-11-14T11:55:12;9.60;99.90
1778;DHT22;886;50.082;8.222;2022-11-14T11:57:43;9.50;99.90
1778;DHT22;886;50.082;8.222;2022-11-14T12:00:18;9.60;99.90
1778;DHT22;886;50.082;8.222;2022-11-14T12:02:47;9.70;99.90
1778;DHT22;886;50.082;8.222;2022-11-14T12:05:20;9.70;99.90
1778;DHT22;886;50.082;8.222;2022-11-14T12:08:00;9.70;99.90
1778;DHT22;886;50.082;8.222;2022-11-14T12:10:33;9.70;99.90
1778;DHT22;886;50.082;8.222;2022-11-14T12:13:27;9.80;99.90
1778;DHT22;886;50.082;8.222;2022-11-14T12:20:11;9.80;99.90
1778;DHT22;886;50.082;8.222;2022-11-14T12:23:19;9.90;99.90
1778;DHT22;886;50.082;8.222;2022-11-14T12:26:34;10.10;99.90
1778;DHT22;886;50.082;8.222;2022-11-14T12:29:31;10.10;99.90
1778;DHT22;886;50.082;8.222;2022-11-14T12:32:27;10.20;99.90
1778;DHT22;886;50.082;8.222;2022-11-14T12:35:16;10.10;99.90
1778;DHT22;886;50.082;8.222;2022-11-14T12:37:46;10.20;99.90
1778;DHT22;886;50.082;8.222;2022-11-14T12:40:25;10.20;99.90
1778;DHT22;886;50.082;8.222;2022-11-14T12:42:55;10.20;99.90
1778;DHT22;886;50.082;8.222;2022-11-14T12:45:54;10.10;99.90
1778;DHT22;886;50.082;8.222;2022-11-14T12:48:31;10.10;99.90
1778;DHT22;886;50.082;8.222;2022-11-14T12:51:00;10.00;99.90
1778;DHT22;886;50.082;8.222;2022-11-14T12:53:39;10.00;99.90
1778;DHT22;886;50.082;8.222;2022-11-14T12:56:41;10.00;99.90
1778;DHT22;886;50.082;8.222;2022-11-14T12:59:51;10.10;99.90
1778;DHT22;886;50.082;8.222;2022-11-14T13:05:54;10.10;99.90
1778;DHT22;886;50.082;8.222;2022-11-14T13:08:47;10.00;99.90
1778;DHT22;886;50.082;8.222;2022-11-14T13:11:43;10.10;99.90
1778;DHT22;886;50.082;8.222;2022-11-14T13:14:48;10.10;99.90
1778;DHT22;886;50.082;8.222;2022-11-14T13:17:34;10.00;99.90
1778;DHT22;886;50.082;8.222;2022-11-14T13:20:29;10.00;99.90
1778;DHT22;886;50.082;8.222;2022-11-14T13:23:54;10.00;99.90
1778;DHT22;886;50.082;8.222;2022-11-14T13:26:44;10.00;99.90
1778;DHT22;886;50.082;8.222;2022-11-14T13:35:39;9.90;99.90
1778;DHT22;886;50.082;8.222;2022-11-14T13:38:34;10.00;99.90
1778;DHT22;886;50.082;8.222;2022-11-14T13:45:06;10.00;99.90
1778;DHT22;886;50.082;8.222;2022-11-14T13:48:10;10.00;99.90
1778;DHT22;886;50.082;8.222;2022-11-14T13:50:50;10.00;99.90
1778;DHT22;886;50.082;8.222;2022-11-14T13:53:28;10.10;99.90
1778;DHT22;886;50.082;8.222;2022-11-14T13:56:15;10.00;99.90
1778;DHT22;886;50.082;8.222;2022-11-14T14:02:23;10.10;99.90
1778;DHT22;886;50.082;8.222;2022-11-14T14:05:15;10.10;99.90
1778;DHT22;886;50.082;8.222;2022-11-14T14:08:15;10.00;99.90
1778;DHT22;886;50.082;8.222;2022-11-14T14:11:14;10.00;99.90
1778;DHT22;886;50.082;8.222;2022-11-14T14:13:59;10.00;99.90
1778;DHT22;886;50.082;8.222;2022-11-14T14:16:34;10.10;99.90
1778;DHT22;886;50.082;8.222;2022-11-14T14:19:10;10.20;99.90
1778;DHT22;886;50.082;8.222;2022-11-14T14:21:47;10.20;99.90
1778;DHT22;886;50.082;8.222;2022-11-14T14:24:38;10.20;99.90
1778;DHT22;886;50.082;8.222;2022-11-14T14:27:19;10.10;99.90
1778;DHT22;886;50.082;8.222;2022-11-14T14:30:07;10.20;99.90
1778;DHT22;886;50.082;8.222;2022-11-14T14:32:35;10.20;99.90
1778;DHT22;886;50.082;8.222;2022-11-14T14:35:25;10.20;99.90
1778;DHT22;886;50.082;8.222;2022-11-14T14:37:54;10.20;99.90
1778;DHT22;886;50.082;8.222;2022-11-14T14:40:24;10.20;99.90
1778;DHT22;886;50.082;8.222;2022-11-14T14:42:54;10.20;99.90
1778;DHT22;886;50.082;8.222;2022-11-14T14:45:23;10.20;99.90
1778;DHT22;886;50.082;8.222;2022-11-14T14:47:59;10.20;99.90
1778;DHT22;886;50.082;8.222;2022-11-14T14:50:36;10.20;99.90
1778;DHT22;886;50.082;8.222;2022-11-14T14:53:04;10.30;99.90
1778;DHT22;886;50.082;8.222;2022-11-14T14:55:33;10.20;99.90
1778;DHT22;886;50.082;8.222;2022-11-14T14:58:15;10.20;99.90
1778;DHT22;886;50.082;8.222;2022-11-14T15:00:54;10.20;99.90
1778;DHT22;886;50.082;8.222;2022-11-14T15:03:24;10.20;99.90
1778;DHT22;886;50.082;8.222;2022-11-14T15:06:01;10.20;99.90
1778;DHT22;886;50.082;8.222;2022-11-14T15:08:33;10.20;99.90
1778;DHT22;886;50.082;8.222;2022-11-14T15:11:02;10.20;99.90
1778;DHT22;886;50.082;8.222;2022-11-14T15:13:31;10.20;99.90
1778;DHT22;886;50.082;8.222;2022-11-14T15:15:58;10.20;99.90
1778;DHT22;886;50.082;8.222;2022-11-14T15:18:29;10.20;99.90
1778;DHT22;886;50.082;8.222;2022-11-14T15:21:13;10.20;99.90
1778;DHT22;886;50.082;8.222;2022-11-14T15:23:45;10.20;99.90
1778;DHT22;886;50.082;8.222;2022-11-14T15:26:17;10.20;99.90
1778;DHT22;886;50.082;8.222;2022-11-14T15:28:44;10.20;99.90
1778;DHT22;886;50.082;8.222;2022-11-14T15:31:16;10.20;99.90
1778;DHT22;886;50.082;8.222;2022-11-14T15:33:45;10.30;99.90
1778;DHT22;886;50.082;8.222;2022-11-14T15:36:27;10.30;99.90
1778;DHT22;886;50.082;8.222;2022-11-14T15:38:59;10.20;99.90
1778;DHT22;886;50.082;8.222;2022-11-14T15:41:28;10.20;99.90
1778;DHT22;886;50.082;8.222;2022-11-14T15:43:56;10.20;99.90
1778;DHT22;886;50.082;8.222;2022-11-14T15:46:42;10.20;99.90
1778;DHT22;886;50.082;8.222;2022-11-14T15:49:20;10.20;99.90
1778;DHT22;886;50.082;8.222;2022-11-14T15:51:51;10.20;99.90
1778;DHT22;886;50.082;8.222;2022-11-14T15:54:30;10.20;99.90
1778;DHT22;886;50.082;8.222;2022-11-14T15:56:59;10.20;99.90
1778;DHT22;886;50.082;8.222;2022-11-14T15:59:29;10.20;99.90
1778;DHT22;886;50.082;8.222;2022-11-14T16:02:03;10.20;99.90
1778;DHT22;886;50.082;8.222;2022-11-14T16:04:42;10.30;99.90
1778;DHT22;886;50.082;8.222;2022-11-14T16:07:18;10.30;99.90
1778;DHT22;886;50.082;8.222;2022-11-14T16:09:45;10.30;99.90
1778;DHT22;886;50.082;8.222;2022-11-14T16:12:12;10.30;99.90
1778;DHT22;886;50.082;8.222;2022-11-14T16:14:43;10.30;99.90
1778;DHT22;886;50.082;8.222;2022-11-14T16:17:19;10.30;99.90
1778;DHT22;886;50.082;8.222;2022-11-14T16:19:46;10.30;99.90
1778;DHT22;886;50.082;8.222;2022-11-14T16:22:16;10.40;99.90
1778;DHT22;886;50.082;8.222;2022-11-14T16:24:44;10.30;99.90
1778;DHT22;886;50.082;8.222;2022-11-14T16:27:11;10.30;99.90
1778;DHT22;886;50.082;8.222;2022-11-14T16:29:38;10.40;99.90
1778;DHT22;886;50.082;8.222;2022-11-14T16:32:09;10.40;99.90
1778;DHT22;886;50.082;8.222;2022-11-14T16:34:42;10.40;99.90
1778;DHT22;886;50.082;8.222;2022-11-14T16:37:16;10.40;99.90
1778;DHT22;886;50.082;8.222;2022-11-14T16:39:46;10.30;99.90
1778;DHT22;886;50.082;8.222;2022-11-14T16:42:13;10.30;99.90
1778;DHT22;886;50.082;8.222;2022-11-14T16:44:43;10.30;99.90
1778;DHT22;886;50.082;8.222;2022-11-14T16:47:17;10.40;99.90
1778;DHT22;886;50.082;8.222;2022-11-14T16:49:48;10.30;99.90
1778;DHT22;886;50.082;8.222;2022-11-14T16:52:16;10.40;99.90
1778;DHT22;886;50.082;8.222;2022-11-14T16:54:47;10.40;99.90
1778;DHT22;886;50.082;8.222;2022-11-14T16:57:20;10.40;99.90
1778;DHT22;886;50.082;8.222;2022-11-14T16:59:51;10.40;99.90
1778;DHT22;886;50.082;8.222;2022-11-14T17:02:18;10.40;99.90
1778;DHT22;886;50.082;8.222;2022-11-14T17:04:45;10.40;99.90
1778;DHT22;886;50.082;8.222;2022-11-14T17:07:12;10.40;99.90
1778;DHT22;886;50.082;8.222;2022-11-14T17:09:47;10.40;99.90
1778;DHT22;886;50.082;8.222;2022-11-14T17:12:20;10.40;99.90
1778;DHT22;886;50.082;8.222;2022-11-14T17:14:47;10.30;99.90
1778;DHT22;886;50.082;8.222;2022-11-14T17:17:14;10.40;99.90
1778;DHT22;886;50.082;8.222;2022-11-14T17:19:41;10.40;99.90
1778;DHT22;886;50.082;8.222;2022-11-14T17:22:12;10.30;99.90
1778;DHT22;886;50.082;8.222;2022-11-14T17:24:39;10.30;99.90
1778;DHT22;886;50.082;8.222;2022-11-14T17:27:08;10.30;99.90
1778;DHT22;886;50.082;8.222;2022-11-14T17:29:35;10.40;99.90
1778;DHT22;886;50.082;8.222;2022-11-14T17:32:05;10.40;99.90
1778;DHT22;886;50.082;8.222;2022-11-14T17:34:32;10.40;99.90